Summit, Pennsylvania
Current Conditions -  °F | °C
As of 4:56 PM on Tuesday 25 Nov 2014 (Local Time) from KELZ Reporting Station
Overcast Overcast  
Wind Chill: 34°   Ceiling: 4600
Heat Index: 40°   Visibility: 10mi
Dew Point: 24°   Wind: 9mph
Humidity: 53%   Direction: 250°WSW
Pressure: 29.99"   Gusts: NA
Location:  41.7605°N, 77.9728°W
Report Text: KELZ 252156Z AUTO 25008KT 10SM OVC046 04/M04 A2999 RMK AO2 SLP171 T00441044
Loading
Personal Weather Stations






























Interactive Weather Map New forecast layout! Learn more

10-Day Weather Forecast

Advertisements
Track Severe Weather on mobile